Alford, Florida
Current Conditions -  °F | °C
As of 12:53 PM on Thursday 23 Oct 2014 (Local Time) from KMAI Reporting Station
Clear Clear  
Wind Chill: 72°   Ceiling: Unl
Heat Index: 72°   Visibility: 10mi
Dew Point: 45°   Wind: 0mph
Humidity: 38%   Direction: NA
Pressure: 30.06"   Gusts: NA
Location:  30.69°N, 85.39°W
Report Text: KMAI 231753Z AUTO 00000KT 10SM CLR 22/07 A3006 RMK AO2 SLP176 T02220072 10228 20067 58021 $
Loading
Personal Weather Stations






























Interactive Weather Map New forecast layout! Learn more

10-Day Weather Forecast

Advertisements
Track Severe Weather on mobile